createdAt,value
2022-08-22T19:09:01.040Z,77.59
2022-08-22T19:10:01.005Z,78.17
2022-08-22T19:12:05.428Z,78.56
2022-08-22T19:13:05.484Z,79.00
2022-08-22T19:14:05.371Z,79.39
2022-08-22T19:15:05.355Z,79.39
2022-08-22T19:16:05.337Z,79.49
2022-08-22T19:17:05.318Z,79.58
2022-08-22T19:18:05.300Z,80.16
2022-08-22T19:19:05.282Z,79.00
2022-08-22T19:20:05.264Z,79.29
2022-08-22T19:21:05.263Z,79.29
2022-08-22T19:22:05.230Z,78.91
2022-08-22T19:23:05.220Z,78.81
2022-08-22T19:24:05.194Z,80.55
2022-08-22T19:25:05.177Z,81.13
2022-08-22T19:26:05.166Z,80.65
2022-08-22T19:27:05.166Z,80.26
2022-08-22T19:28:05.145Z,80.65
2022-08-22T19:29:10.122Z,80.36
2022-08-22T19:30:05.107Z,80.55
2022-08-22T19:31:05.087Z,79.97
2022-08-22T19:32:05.800Z,80.26
2022-08-22T19:33:05.085Z,78.61
2022-08-22T19:34:05.056Z,78.23
2022-08-22T19:35:05.021Z,76.33
2022-08-22T19:36:05.014Z,76.91
2022-08-22T19:37:04.992Z,76.68
2022-08-22T19:38:05.007Z,76.91
2022-08-22T19:39:04.972Z,77.20
2022-08-22T19:40:05.219Z,78.08
2022-08-22T19:41:04.939Z,77.98
2022-08-22T19:42:04.943Z,76.43
2022-08-22T19:43:04.930Z,76.91
2022-08-22T19:44:04.953Z,77.11
2022-08-22T19:45:04.866Z,77.69
2022-08-22T19:46:04.862Z,77.50
2022-08-22T19:47:04.842Z,76.14
2022-08-22T19:48:04.878Z,77.20
2022-08-22T19:49:04.836Z,76.72
2022-08-22T19:50:05.674Z,77.30
2022-08-22T19:51:04.775Z,77.40
2022-08-22T19:52:04.807Z,77.98
2022-08-22T19:53:04.767Z,78.27
2022-08-22T19:54:04.763Z,77.98
2022-08-22T19:55:04.762Z,78.75
2022-08-22T19:56:04.721Z,79.14
2022-08-22T19:57:04.714Z,78.85
2022-08-22T19:58:04.718Z,78.08
2022-08-22T19:59:04.689Z,78.27
2022-08-22T20:00:04.684Z,78.56
2022-08-22T20:01:04.685Z,78.66
2022-08-22T20:02:04.633Z,78.46
2022-08-22T20:03:04.627Z,78.17
2022-08-22T20:04:04.608Z,78.46
2022-08-22T20:05:04.620Z,77.69
2022-08-22T20:06:05.967Z,77.55
2022-08-22T20:07:04.582Z,78.13
2022-08-22T20:08:04.553Z,78.61
2022-08-22T20:09:04.569Z,82.29
2022-08-22T20:10:04.528Z,81.71
2022-08-22T20:11:04.537Z,80.07
2022-08-22T20:12:04.492Z,79.20
2022-08-22T20:13:04.494Z,78.81
2022-08-22T20:14:04.464Z,78.52
2022-08-22T20:15:04.452Z,79.10
2022-08-22T20:16:04.435Z,78.23
2022-08-22T20:17:04.432Z,78.71
2022-08-22T20:18:12.130Z,79.39
2022-08-22T20:19:09.239Z,79.39
